sensor_id;sensor_type;location;lat;lon;timestamp;P1;durP1;ratioP1;P2;durP2;ratioP2
68614;SDS011;55593;51.994;5.882;2023-07-30T00:00:07;11.65;;;3.50;;
68614;SDS011;55593;51.994;5.882;2023-07-30T00:02:37;16.02;;;4.43;;
68614;SDS011;55593;51.994;5.882;2023-07-30T00:05:09;10.82;;;4.07;;
68614;SDS011;55593;51.994;5.882;2023-07-30T00:07:38;15.68;;;4.53;;
68614;SDS011;55593;51.994;5.882;2023-07-30T00:10:08;9.48;;;4.68;;
68614;SDS011;55593;51.994;5.882;2023-07-30T00:12:37;20.58;;;5.45;;
68614;SDS011;55593;51.994;5.882;2023-07-30T00:15:06;17.17;;;4.22;;
68614;SDS011;55593;51.994;5.882;2023-07-30T00:17:36;11.50;;;4.15;;
68614;SDS011;55593;51.994;5.882;2023-07-30T00:20:06;8.60;;;3.55;;
68614;SDS011;55593;51.994;5.882;2023-07-30T00:22:38;12.88;;;4.60;;
68614;SDS011;55593;51.994;5.882;2023-07-30T00:25:08;10.63;;;4.07;;
68614;SDS011;55593;51.994;5.882;2023-07-30T00:27:37;12.40;;;4.20;;
68614;SDS011;55593;51.994;5.882;2023-07-30T00:30:07;10.00;;;4.25;;
68614;SDS011;55593;51.994;5.882;2023-07-30T00:32:36;13.57;;;4.63;;
68614;SDS011;55593;51.994;5.882;2023-07-30T00:35:12;14.90;;;5.70;;
68614;SDS011;55593;51.994;5.882;2023-07-30T00:37:41;17.33;;;4.30;;
68614;SDS011;55593;51.994;5.882;2023-07-30T00:40:10;11.85;;;4.10;;
68614;SDS011;55593;51.994;5.882;2023-07-30T00:42:40;10.88;;;4.25;;
68614;SDS011;55593;51.994;5.882;2023-07-30T00:45:09;13.18;;;5.35;;
68614;SDS011;55593;51.994;5.882;2023-07-30T00:47:39;9.13;;;4.00;;
68614;SDS011;55593;51.994;5.882;2023-07-30T00:50:08;15.85;;;4.72;;
68614;SDS011;55593;51.994;5.882;2023-07-30T00:52:42;12.10;;;4.03;;
68614;SDS011;55593;51.994;5.882;2023-07-30T00:55:11;10.35;;;4.07;;
68614;SDS011;55593;51.994;5.882;2023-07-30T00:57:41;8.43;;;3.90;;
68614;SDS011;55593;51.994;5.882;2023-07-30T01:00:10;12.98;;;4.47;;
68614;SDS011;55593;51.994;5.882;2023-07-30T01:02:42;10.75;;;3.80;;
68614;SDS011;55593;51.994;5.882;2023-07-30T01:05:14;10.00;;;3.88;;
68614;SDS011;55593;51.994;5.882;2023-07-30T01:07:43;11.95;;;3.72;;
68614;SDS011;55593;51.994;5.882;2023-07-30T01:10:12;12.90;;;3.80;;
68614;SDS011;55593;51.994;5.882;2023-07-30T01:12:41;13.50;;;3.80;;
68614;SDS011;55593;51.994;5.882;2023-07-30T01:15:11;17.77;;;4.63;;
68614;SDS011;55593;51.994;5.882;2023-07-30T01:17:40;11.45;;;4.28;;
68614;SDS011;55593;51.994;5.882;2023-07-30T01:20:10;11.70;;;3.50;;
68614;SDS011;55593;51.994;5.882;2023-07-30T01:22:42;9.80;;;3.60;;
68614;SDS011;55593;51.994;5.882;2023-07-30T01:25:11;7.18;;;3.38;;
68614;SDS011;55593;51.994;5.882;2023-07-30T01:27:42;8.43;;;3.55;;
68614;SDS011;55593;51.994;5.882;2023-07-30T01:30:16;11.32;;;3.72;;
68614;SDS011;55593;51.994;5.882;2023-07-30T01:32:47;9.23;;;3.92;;
68614;SDS011;55593;51.994;5.882;2023-07-30T01:35:19;11.70;;;3.65;;
68614;SDS011;55593;51.994;5.882;2023-07-30T01:37:52;10.05;;;3.58;;
68614;SDS011;55593;51.994;5.882;2023-07-30T01:40:21;12.93;;;3.78;;
68614;SDS011;55593;51.994;5.882;2023-07-30T01:42:51;9.25;;;3.60;;
68614;SDS011;55593;51.994;5.882;2023-07-30T01:45:20;6.20;;;3.70;;
68614;SDS011;55593;51.994;5.882;2023-07-30T01:47:49;7.05;;;3.42;;
68614;SDS011;55593;51.994;5.882;2023-07-30T01:50:18;12.98;;;4.32;;
68614;SDS011;55593;51.994;5.882;2023-07-30T01:52:47;10.82;;;3.97;;
68614;SDS011;55593;51.994;5.882;2023-07-30T01:55:19;10.82;;;4.72;;
68614;SDS011;55593;51.994;5.882;2023-07-30T01:57:48;7.40;;;3.75;;
68614;SDS011;55593;51.994;5.882;2023-07-30T02:00:17;14.27;;;5.20;;
68614;SDS011;55593;51.994;5.882;2023-07-30T02:02:47;11.80;;;4.22;;
68614;SDS011;55593;51.994;5.882;2023-07-30T02:05:16;10.18;;;3.70;;
68614;SDS011;55593;51.994;5.882;2023-07-30T02:07:45;12.05;;;4.57;;
68614;SDS011;55593;51.994;5.882;2023-07-30T02:10:14;15.48;;;5.78;;
68614;SDS011;55593;51.994;5.882;2023-07-30T02:12:46;10.85;;;4.50;;
68614;SDS011;55593;51.994;5.882;2023-07-30T02:15:15;13.48;;;5.00;;
68614;SDS011;55593;51.994;5.882;2023-07-30T02:17:44;16.10;;;4.05;;
68614;SDS011;55593;51.994;5.882;2023-07-30T02:20:14;11.60;;;4.85;;
68614;SDS011;55593;51.994;5.882;2023-07-30T02:22:43;12.23;;;5.10;;
68614;SDS011;55593;51.994;5.882;2023-07-30T02:25:12;10.55;;;4.32;;
68614;SDS011;55593;51.994;5.882;2023-07-30T02:27:42;14.65;;;5.15;;
68614;SDS011;55593;51.994;5.882;2023-07-30T02:30:13;12.27;;;4.90;;
68614;SDS011;55593;51.994;5.882;2023-07-30T02:32:43;9.82;;;4.30;;
68614;SDS011;55593;51.994;5.882;2023-07-30T02:35:12;12.73;;;3.97;;
68614;SDS011;55593;51.994;5.882;2023-07-30T02:37:41;13.00;;;4.65;;
68614;SDS011;55593;51.994;5.882;2023-07-30T02:40:11;11.52;;;4.70;;
68614;SDS011;55593;51.994;5.882;2023-07-30T02:42:40;12.98;;;5.03;;
68614;SDS011;55593;51.994;5.882;2023-07-30T02:45:10;24.58;;;5.97;;
68614;SDS011;55593;51.994;5.882;2023-07-30T02:47:41;16.38;;;5.35;;
68614;SDS011;55593;51.994;5.882;2023-07-30T02:50:11;12.85;;;5.03;;
68614;SDS011;55593;51.994;5.882;2023-07-30T02:52:40;11.07;;;4.72;;
68614;SDS011;55593;51.994;5.882;2023-07-30T02:55:09;13.73;;;5.22;;
68614;SDS011;55593;51.994;5.882;2023-07-30T02:57:38;12.68;;;4.60;;
68614;SDS011;55593;51.994;5.882;2023-07-30T03:00:08;12.35;;;4.75;;
68614;SDS011;55593;51.994;5.882;2023-07-30T03:02:37;13.07;;;4.63;;
68614;SDS011;55593;51.994;5.882;2023-07-30T03:05:09;16.98;;;4.95;;
68614;SDS011;55593;51.994;5.882;2023-07-30T03:07:38;11.88;;;4.82;;
68614;SDS011;55593;51.994;5.882;2023-07-30T03:10:08;14.48;;;4.93;;
68614;SDS011;55593;51.994;5.882;2023-07-30T03:12:38;15.88;;;4.60;;
68614;SDS011;55593;51.994;5.882;2023-07-30T03:15:07;18.30;;;5.53;;
68614;SDS011;55593;51.994;5.882;2023-07-30T03:17:37;14.70;;;5.25;;
68614;SDS011;55593;51.994;5.882;2023-07-30T03:20:09;12.55;;;4.63;;
68614;SDS011;55593;51.994;5.882;2023-07-30T03:22:39;26.08;;;6.03;;
68614;SDS011;55593;51.994;5.882;2023-07-30T03:25:08;11.52;;;5.38;;
68614;SDS011;55593;51.994;5.882;2023-07-30T03:27:37;15.18;;;5.45;;
68614;SDS011;55593;51.994;5.882;2023-07-30T03:30:06;22.08;;;6.18;;
68614;SDS011;55593;51.994;5.882;2023-07-30T03:32:36;21.50;;;6.18;;
68614;SDS011;55593;51.994;5.882;2023-07-30T03:35:09;18.23;;;6.05;;
68614;SDS011;55593;51.994;5.882;2023-07-30T03:37:38;14.45;;;5.38;;
68614;SDS011;55593;51.994;5.882;2023-07-30T03:40:08;22.33;;;7.20;;
68614;SDS011;55593;51.994;5.882;2023-07-30T03:42:37;16.05;;;6.15;;
68614;SDS011;55593;51.994;5.882;2023-07-30T03:45:07;19.33;;;7.25;;
68614;SDS011;55593;51.994;5.882;2023-07-30T03:47:36;14.88;;;6.63;;
68614;SDS011;55593;51.994;5.882;2023-07-30T03:50:06;18.27;;;6.25;;
68614;SDS011;55593;51.994;5.882;2023-07-30T03:52:38;28.35;;;8.10;;
68614;SDS011;55593;51.994;5.882;2023-07-30T03:55:07;16.73;;;6.63;;
68614;SDS011;55593;51.994;5.882;2023-07-30T03:57:37;20.35;;;7.43;;
68614;SDS011;55593;51.994;5.882;2023-07-30T04:00:06;19.48;;;7.22;;
68614;SDS011;55593;51.994;5.882;2023-07-30T04:02:42;22.48;;;8.00;;
68614;SDS011;55593;51.994;5.882;2023-07-30T04:05:14;21.02;;;7.50;;
68614;SDS011;55593;51.994;5.882;2023-07-30T04:07:43;19.13;;;6.63;;
68614;SDS011;55593;51.994;5.882;2023-07-30T04:10:12;26.40;;;8.65;;
68614;SDS011;55593;51.994;5.882;2023-07-30T04:12:41;19.98;;;7.75;;
68614;SDS011;55593;51.994;5.882;2023-07-30T04:15:10;18.55;;;7.97;;
68614;SDS011;55593;51.994;5.882;2023-07-30T04:17:39;23.05;;;8.10;;
68614;SDS011;55593;51.994;5.882;2023-07-30T04:20:09;23.73;;;8.73;;
68614;SDS011;55593;51.994;5.882;2023-07-30T04:22:41;19.85;;;8.02;;
68614;SDS011;55593;51.994;5.882;2023-07-30T04:25:10;22.25;;;8.77;;
68614;SDS011;55593;51.994;5.882;2023-07-30T04:27:39;30.85;;;9.98;;
68614;SDS011;55593;51.994;5.882;2023-07-30T04:30:09;20.08;;;8.23;;
68614;SDS011;55593;51.994;5.882;2023-07-30T04:32:39;25.95;;;9.13;;
68614;SDS011;55593;51.994;5.882;2023-07-30T04:35:08;26.65;;;8.20;;
68614;SDS011;55593;51.994;5.882;2023-07-30T04:37:41;21.30;;;9.15;;
68614;SDS011;55593;51.994;5.882;2023-07-30T04:40:11;20.67;;;7.18;;
68614;SDS011;55593;51.994;5.882;2023-07-30T04:42:40;26.98;;;9.13;;
68614;SDS011;55593;51.994;5.882;2023-07-30T04:45:09;26.15;;;9.15;;
68614;SDS011;55593;51.994;5.882;2023-07-30T04:47:42;27.88;;;8.68;;
68614;SDS011;55593;51.994;5.882;2023-07-30T04:50:12;26.63;;;9.38;;
68614;SDS011;55593;51.994;5.882;2023-07-30T04:52:44;23.83;;;8.40;;
68614;SDS011;55593;51.994;5.882;2023-07-30T04:55:13;30.08;;;10.07;;
68614;SDS011;55593;51.994;5.882;2023-07-30T04:57:42;21.63;;;8.20;;
68614;SDS011;55593;51.994;5.882;2023-07-30T05:00:12;32.45;;;10.23;;
68614;SDS011;55593;51.994;5.882;2023-07-30T05:02:41;33.53;;;9.60;;
68614;SDS011;55593;51.994;5.882;2023-07-30T05:05:11;27.33;;;9.80;;
68614;SDS011;55593;51.994;5.882;2023-07-30T05:07:40;33.25;;;10.23;;
68614;SDS011;55593;51.994;5.882;2023-07-30T05:10:12;24.13;;;10.45;;
68614;SDS011;55593;51.994;5.882;2023-07-30T05:12:42;25.98;;;8.98;;
68614;SDS011;55593;51.994;5.882;2023-07-30T05:15:11;27.98;;;9.13;;
68614;SDS011;55593;51.994;5.882;2023-07-30T05:17:40;31.50;;;9.05;;
68614;SDS011;55593;51.994;5.882;2023-07-30T05:20:09;27.88;;;9.25;;
68614;SDS011;55593;51.994;5.882;2023-07-30T05:22:39;27.80;;;9.38;;
68614;SDS011;55593;51.994;5.882;2023-07-30T05:25:08;23.52;;;9.60;;
68614;SDS011;55593;51.994;5.882;2023-07-30T05:27:40;24.13;;;10.05;;
68614;SDS011;55593;51.994;5.882;2023-07-30T05:30:10;36.92;;;12.68;;
68614;SDS011;55593;51.994;5.882;2023-07-30T05:32:39;30.23;;;12.50;;
68614;SDS011;55593;51.994;5.882;2023-07-30T05:35:09;29.67;;;11.70;;
68614;SDS011;55593;51.994;5.882;2023-07-30T05:37:38;28.15;;;11.77;;
68614;SDS011;55593;51.994;5.882;2023-07-30T05:40:07;42.88;;;11.70;;
68614;SDS011;55593;51.994;5.882;2023-07-30T05:42:36;31.63;;;11.18;;
68614;SDS011;55593;51.994;5.882;2023-07-30T05:45:09;32.15;;;11.70;;
68614;SDS011;55593;51.994;5.882;2023-07-30T05:47:38;31.13;;;12.43;;
68614;SDS011;55593;51.994;5.882;2023-07-30T05:50:07;32.50;;;12.68;;
68614;SDS011;55593;51.994;5.882;2023-07-30T05:52:37;39.60;;;12.70;;
68614;SDS011;55593;51.994;5.882;2023-07-30T05:55:06;30.77;;;12.07;;
68614;SDS011;55593;51.994;5.882;2023-07-30T05:57:36;39.05;;;13.32;;
68614;SDS011;55593;51.994;5.882;2023-07-30T06:00:08;34.88;;;12.00;;
68614;SDS011;55593;51.994;5.882;2023-07-30T06:02:38;35.38;;;13.45;;
68614;SDS011;55593;51.994;5.882;2023-07-30T06:05:07;35.63;;;13.73;;
68614;SDS011;55593;51.994;5.882;2023-07-30T06:07:37;33.92;;;14.25;;
68614;SDS011;55593;51.994;5.882;2023-07-30T06:10:06;35.42;;;14.18;;
68614;SDS011;55593;51.994;5.882;2023-07-30T06:12:36;51.13;;;16.20;;
68614;SDS011;55593;51.994;5.882;2023-07-30T06:15:08;39.35;;;13.77;;
68614;SDS011;55593;51.994;5.882;2023-07-30T06:17:38;40.88;;;14.43;;
68614;SDS011;55593;51.994;5.882;2023-07-30T06:20:08;29.73;;;15.07;;
68614;SDS011;55593;51.994;5.882;2023-07-30T06:22:38;32.22;;;12.70;;
68614;SDS011;55593;51.994;5.882;2023-07-30T06:25:07;35.67;;;14.23;;
68614;SDS011;55593;51.994;5.882;2023-07-30T06:27:36;36.75;;;13.73;;
68614;SDS011;55593;51.994;5.882;2023-07-30T06:30:08;37.95;;;14.82;;
68614;SDS011;55593;51.994;5.882;2023-07-30T06:32:38;32.20;;;13.55;;
68614;SDS011;55593;51.994;5.882;2023-07-30T06:35:08;35.67;;;14.65;;
68614;SDS011;55593;51.994;5.882;2023-07-30T06:37:37;32.78;;;14.27;;
68614;SDS011;55593;51.994;5.882;2023-07-30T06:40:07;49.70;;;16.00;;
68614;SDS011;55593;51.994;5.882;2023-07-30T06:42:36;52.67;;;15.90;;
68614;SDS011;55593;51.994;5.882;2023-07-30T06:45:08;38.80;;;15.23;;
68614;SDS011;55593;51.994;5.882;2023-07-30T06:47:38;42.20;;;15.60;;
68614;SDS011;55593;51.994;5.882;2023-07-30T06:50:07;36.33;;;13.57;;
68614;SDS011;55593;51.994;5.882;2023-07-30T06:52:39;38.83;;;13.95;;
68614;SDS011;55593;51.994;5.882;2023-07-30T06:55:08;38.90;;;14.75;;
68614;SDS011;55593;51.994;5.882;2023-07-30T06:57:37;41.85;;;14.63;;
68614;SDS011;55593;51.994;5.882;2023-07-30T07:00:09;31.83;;;13.15;;
68614;SDS011;55593;51.994;5.882;2023-07-30T07:02:44;38.00;;;16.20;;
68614;SDS011;55593;51.994;5.882;2023-07-30T07:05:14;38.05;;;14.55;;
68614;SDS011;55593;51.994;5.882;2023-07-30T07:07:44;29.60;;;13.35;;
68614;SDS011;55593;51.994;5.882;2023-07-30T07:10:13;39.00;;;14.40;;
68614;SDS011;55593;51.994;5.882;2023-07-30T07:12:42;40.00;;;14.55;;
68614;SDS011;55593;51.994;5.882;2023-07-30T07:15:14;26.60;;;12.30;;
68614;SDS011;55593;51.994;5.882;2023-07-30T07:17:43;36.15;;;14.15;;
68614;SDS011;55593;51.994;5.882;2023-07-30T07:20:12;30.63;;;12.77;;
68614;SDS011;55593;51.994;5.882;2023-07-30T07:22:41;35.78;;;15.07;;
68614;SDS011;55593;51.994;5.882;2023-07-30T07:25:11;33.65;;;15.07;;
68614;SDS011;55593;51.994;5.882;2023-07-30T07:27:40;37.60;;;15.35;;
68614;SDS011;55593;51.994;5.882;2023-07-30T07:30:09;37.67;;;15.27;;
68614;SDS011;55593;51.994;5.882;2023-07-30T07:32:42;37.33;;;14.98;;
68614;SDS011;55593;51.994;5.882;2023-07-30T07:35:11;28.50;;;13.82;;
68614;SDS011;55593;51.994;5.882;2023-07-30T07:37:40;32.03;;;13.18;;
68614;SDS011;55593;51.994;5.882;2023-07-30T07:40:09;38.38;;;13.23;;
68614;SDS011;55593;51.994;5.882;2023-07-30T07:42:39;31.58;;;13.98;;
68614;SDS011;55593;51.994;5.882;2023-07-30T07:45:08;41.85;;;14.02;;
68614;SDS011;55593;51.994;5.882;2023-07-30T07:47:37;34.33;;;12.98;;
68614;SDS011;55593;51.994;5.882;2023-07-30T07:50:09;30.33;;;13.13;;
68614;SDS011;55593;51.994;5.882;2023-07-30T07:52:38;34.47;;;13.57;;
68614;SDS011;55593;51.994;5.882;2023-07-30T07:55:08;28.98;;;11.77;;
68614;SDS011;55593;51.994;5.882;2023-07-30T07:57:37;25.80;;;10.85;;
68614;SDS011;55593;51.994;5.882;2023-07-30T08:00:07;34.20;;;10.88;;
68614;SDS011;55593;51.994;5.882;2023-07-30T08:02:41;30.38;;;12.00;;
68614;SDS011;55593;51.994;5.882;2023-07-30T08:05:13;30.58;;;9.88;;
68614;SDS011;55593;51.994;5.882;2023-07-30T08:07:43;33.60;;;8.90;;
68614;SDS011;55593;51.994;5.882;2023-07-30T08:10:13;24.30;;;7.90;;
68614;SDS011;55593;51.994;5.882;2023-07-30T08:12:42;22.20;;;8.73;;
68614;SDS011;55593;51.994;5.882;2023-07-30T08:15:13;28.13;;;8.43;;
68614;SDS011;55593;51.994;5.882;2023-07-30T08:17:42;29.40;;;8.38;;
68614;SDS011;55593;51.994;5.882;2023-07-30T08:20:14;23.38;;;8.85;;
68614;SDS011;55593;51.994;5.882;2023-07-30T08:22:43;31.70;;;9.23;;
68614;SDS011;55593;51.994;5.882;2023-07-30T08:25:13;29.73;;;9.20;;
68614;SDS011;55593;51.994;5.882;2023-07-30T08:27:42;22.60;;;8.10;;
68614;SDS011;55593;51.994;5.882;2023-07-30T08:30:11;32.55;;;9.45;;
68614;SDS011;55593;51.994;5.882;2023-07-30T08:32:41;20.58;;;8.38;;
68614;SDS011;55593;51.994;5.882;2023-07-30T08:35:10;33.35;;;9.02;;
68614;SDS011;55593;51.994;5.882;2023-07-30T08:37:42;28.85;;;10.18;;
68614;SDS011;55593;51.994;5.882;2023-07-30T08:40:11;33.30;;;9.88;;
68614;SDS011;55593;51.994;5.882;2023-07-30T08:42:40;26.98;;;8.80;;
68614;SDS011;55593;51.994;5.882;2023-07-30T08:45:09;27.60;;;9.55;;
68614;SDS011;55593;51.994;5.882;2023-07-30T08:47:39;25.45;;;9.82;;
68614;SDS011;55593;51.994;5.882;2023-07-30T08:50:09;26.40;;;8.88;;
68614;SDS011;55593;51.994;5.882;2023-07-30T08:52:38;28.92;;;8.95;;
68614;SDS011;55593;51.994;5.882;2023-07-30T08:55:10;22.25;;;8.75;;
68614;SDS011;55593;51.994;5.882;2023-07-30T08:57:39;22.02;;;8.00;;
68614;SDS011;55593;51.994;5.882;2023-07-30T09:00:10;35.08;;;8.38;;
68614;SDS011;55593;51.994;5.882;2023-07-30T09:02:41;20.65;;;7.65;;
68614;SDS011;55593;51.994;5.882;2023-07-30T09:05:12;25.05;;;7.82;;
68614;SDS011;55593;51.994;5.882;2023-07-30T09:07:41;20.02;;;6.82;;
68614;SDS011;55593;51.994;5.882;2023-07-30T09:10:13;19.05;;;6.18;;
68614;SDS011;55593;51.994;5.882;2023-07-30T09:12:43;23.42;;;6.28;;
68614;SDS011;55593;51.994;5.882;2023-07-30T09:15:12;24.25;;;6.72;;
68614;SDS011;55593;51.994;5.882;2023-07-30T09:17:41;21.75;;;6.45;;
68614;SDS011;55593;51.994;5.882;2023-07-30T09:20:10;25.58;;;7.47;;
68614;SDS011;55593;51.994;5.882;2023-07-30T09:22:39;19.48;;;6.20;;
68614;SDS011;55593;51.994;5.882;2023-07-30T09:25:09;19.60;;;5.35;;
68614;SDS011;55593;51.994;5.882;2023-07-30T09:27:44;24.98;;;5.85;;
68614;SDS011;55593;51.994;5.882;2023-07-30T09:30:21;25.88;;;5.45;;
68614;SDS011;55593;51.994;5.882;2023-07-30T09:32:51;23.92;;;5.20;;
68614;SDS011;55593;51.994;5.882;2023-07-30T09:35:21;23.10;;;6.65;;
68614;SDS011;55593;51.994;5.882;2023-07-30T09:37:57;23.58;;;6.15;;
68614;SDS011;55593;51.994;5.882;2023-07-30T09:40:31;17.08;;;4.90;;
68614;SDS011;55593;51.994;5.882;2023-07-30T09:43:04;23.45;;;5.55;;
68614;SDS011;55593;51.994;5.882;2023-07-30T09:45:34;21.88;;;5.20;;
68614;SDS011;55593;51.994;5.882;2023-07-30T09:48:04;20.20;;;5.22;;
68614;SDS011;55593;51.994;5.882;2023-07-30T09:50:35;17.55;;;4.82;;
68614;SDS011;55593;51.994;5.882;2023-07-30T09:53:05;18.58;;;4.35;;
68614;SDS011;55593;51.994;5.882;2023-07-30T09:55:34;17.30;;;4.18;;
68614;SDS011;55593;51.994;5.882;2023-07-30T09:58:06;25.85;;;4.82;;
68614;SDS011;55593;51.994;5.882;2023-07-30T10:00:37;20.27;;;5.32;;
68614;SDS011;55593;51.994;5.882;2023-07-30T10:03:06;20.23;;;4.75;;
68614;SDS011;55593;51.994;5.882;2023-07-30T10:05:36;14.13;;;4.40;;
68614;SDS011;55593;51.994;5.882;2023-07-30T10:08:08;20.85;;;4.20;;
68614;SDS011;55593;51.994;5.882;2023-07-30T10:10:38;19.15;;;5.05;;
68614;SDS011;55593;51.994;5.882;2023-07-30T10:13:10;18.95;;;4.85;;
68614;SDS011;55593;51.994;5.882;2023-07-30T10:15:40;18.58;;;5.05;;
68614;SDS011;55593;51.994;5.882;2023-07-30T10:18:10;13.07;;;3.90;;
68614;SDS011;55593;51.994;5.882;2023-07-30T10:20:40;17.00;;;4.63;;
68614;SDS011;55593;51.994;5.882;2023-07-30T10:23:09;18.38;;;4.57;;
68614;SDS011;55593;51.994;5.882;2023-07-30T10:25:42;21.48;;;3.67;;
68614;SDS011;55593;51.994;5.882;2023-07-30T10:31:05;13.20;;;3.75;;
68614;SDS011;55593;51.994;5.882;2023-07-30T10:33:45;19.38;;;3.03;;
68614;SDS011;55593;51.994;5.882;2023-07-30T10:36:17;14.73;;;2.63;;
68614;SDS011;55593;51.994;5.882;2023-07-30T10:38:46;11.55;;;3.00;;
68614;SDS011;55593;51.994;5.882;2023-07-30T10:41:16;11.73;;;3.85;;
68614;SDS011;55593;51.994;5.882;2023-07-30T10:43:48;16.08;;;3.63;;
68614;SDS011;55593;51.994;5.882;2023-07-30T10:46:19;17.88;;;3.50;;
68614;SDS011;55593;51.994;5.882;2023-07-30T10:48:48;16.83;;;4.15;;
68614;SDS011;55593;51.994;5.882;2023-07-30T10:51:18;12.48;;;3.00;;
68614;SDS011;55593;51.994;5.882;2023-07-30T10:53:50;12.15;;;2.60;;
68614;SDS011;55593;51.994;5.882;2023-07-30T10:56:21;11.10;;;3.30;;
68614;SDS011;55593;51.994;5.882;2023-07-30T10:58:54;11.55;;;2.17;;
68614;SDS011;55593;51.994;5.882;2023-07-30T11:01:24;13.40;;;3.60;;
68614;SDS011;55593;51.994;5.882;2023-07-30T11:03:54;11.15;;;3.58;;
68614;SDS011;55593;51.994;5.882;2023-07-30T11:06:23;9.80;;;2.85;;
68614;SDS011;55593;51.994;5.882;2023-07-30T11:08:53;11.13;;;2.67;;
68614;SDS011;55593;51.994;5.882;2023-07-30T11:11:22;14.20;;;2.65;;
68614;SDS011;55593;51.994;5.882;2023-07-30T11:13:54;12.15;;;3.03;;
68614;SDS011;55593;51.994;5.882;2023-07-30T11:16:24;11.02;;;3.40;;
68614;SDS011;55593;51.994;5.882;2023-07-30T11:18:55;9.77;;;2.35;;
68614;SDS011;55593;51.994;5.882;2023-07-30T11:21:27;13.80;;;3.08;;
68614;SDS011;55593;51.994;5.882;2023-07-30T11:23:56;11.25;;;2.38;;
68614;SDS011;55593;51.994;5.882;2023-07-30T11:26:30;7.85;;;2.47;;
68614;SDS011;55593;51.994;5.882;2023-07-30T11:29:02;10.48;;;2.30;;
68614;SDS011;55593;51.994;5.882;2023-07-30T11:31:43;12.30;;;2.70;;
68614;SDS011;55593;51.994;5.882;2023-07-30T11:34:19;11.73;;;2.75;;
68614;SDS011;55593;51.994;5.882;2023-07-30T11:36:53;12.10;;;2.38;;
68614;SDS011;55593;51.994;5.882;2023-07-30T11:39:22;11.57;;;3.28;;
68614;SDS011;55593;51.994;5.882;2023-07-30T11:41:54;10.35;;;2.47;;
68614;SDS011;55593;51.994;5.882;2023-07-30T11:44:36;10.45;;;2.70;;
68614;SDS011;55593;51.994;5.882;2023-07-30T11:47:07;11.05;;;2.65;;
68614;SDS011;55593;51.994;5.882;2023-07-30T11:49:37;6.03;;;1.90;;
68614;SDS011;55593;51.994;5.882;2023-07-30T11:52:07;8.68;;;2.20;;
68614;SDS011;55593;51.994;5.882;2023-07-30T11:54:37;8.43;;;1.98;;
68614;SDS011;55593;51.994;5.882;2023-07-30T11:57:06;12.35;;;2.50;;
68614;SDS011;55593;51.994;5.882;2023-07-30T11:59:38;10.48;;;2.60;;
68614;SDS011;55593;51.994;5.882;2023-07-30T12:02:08;9.90;;;2.30;;
68614;SDS011;55593;51.994;5.882;2023-07-30T12:04:43;11.93;;;2.50;;
68614;SDS011;55593;51.994;5.882;2023-07-30T12:07:21;10.82;;;2.42;;
68614;SDS011;55593;51.994;5.882;2023-07-30T12:09:51;11.80;;;2.63;;
68614;SDS011;55593;51.994;5.882;2023-07-30T12:12:20;10.25;;;2.65;;
68614;SDS011;55593;51.994;5.882;2023-07-30T12:14:56;10.15;;;2.60;;
68614;SDS011;55593;51.994;5.882;2023-07-30T12:17:25;11.57;;;2.72;;
68614;SDS011;55593;51.994;5.882;2023-07-30T12:19:54;12.43;;;1.88;;
68614;SDS011;55593;51.994;5.882;2023-07-30T12:22:23;8.65;;;2.10;;
68614;SDS011;55593;51.994;5.882;2023-07-30T12:24:53;12.98;;;2.28;;
68614;SDS011;55593;51.994;5.882;2023-07-30T12:27:22;9.65;;;2.00;;
68614;SDS011;55593;51.994;5.882;2023-07-30T12:29:51;7.88;;;1.70;;
68614;SDS011;55593;51.994;5.882;2023-07-30T12:32:23;9.50;;;1.77;;
68614;SDS011;55593;51.994;5.882;2023-07-30T12:34:54;9.55;;;2.42;;
68614;SDS011;55593;51.994;5.882;2023-07-30T12:37:23;10.43;;;2.58;;
68614;SDS011;55593;51.994;5.882;2023-07-30T12:39:52;9.65;;;1.90;;
68614;SDS011;55593;51.994;5.882;2023-07-30T12:42:21;8.77;;;2.30;;
68614;SDS011;55593;51.994;5.882;2023-07-30T12:44:51;6.63;;;1.80;;
68614;SDS011;55593;51.994;5.882;2023-07-30T12:47:20;6.57;;;1.50;;
68614;SDS011;55593;51.994;5.882;2023-07-30T12:49:51;7.70;;;1.52;;
68614;SDS011;55593;51.994;5.882;2023-07-30T12:52:20;7.10;;;1.90;;
68614;SDS011;55593;51.994;5.882;2023-07-30T12:54:50;7.57;;;1.80;;
68614;SDS011;55593;51.994;5.882;2023-07-30T12:57:19;11.60;;;1.70;;
68614;SDS011;55593;51.994;5.882;2023-07-30T12:59:48;6.47;;;1.65;;
68614;SDS011;55593;51.994;5.882;2023-07-30T13:02:17;7.18;;;1.40;;
68614;SDS011;55593;51.994;5.882;2023-07-30T13:04:49;9.27;;;2.10;;
68614;SDS011;55593;51.994;5.882;2023-07-30T13:07:18;6.63;;;1.70;;
68614;SDS011;55593;51.994;5.882;2023-07-30T13:09:47;11.85;;;2.17;;
68614;SDS011;55593;51.994;5.882;2023-07-30T13:12:16;5.93;;;1.50;;
68614;SDS011;55593;51.994;5.882;2023-07-30T13:14:45;9.80;;;1.70;;
68614;SDS011;55593;51.994;5.882;2023-07-30T13:17:14;10.13;;;1.65;;
68614;SDS011;55593;51.994;5.882;2023-07-30T13:19:43;9.30;;;1.80;;
68614;SDS011;55593;51.994;5.882;2023-07-30T13:22:15;19.15;;;2.40;;
68614;SDS011;55593;51.994;5.882;2023-07-30T13:24:44;6.90;;;1.92;;
68614;SDS011;55593;51.994;5.882;2023-07-30T13:27:13;7.30;;;2.25;;
68614;SDS011;55593;51.994;5.882;2023-07-30T13:29:42;10.10;;;1.80;;
68614;SDS011;55593;51.994;5.882;2023-07-30T13:32:13;7.75;;;1.75;;
68614;SDS011;55593;51.994;5.882;2023-07-30T13:34:43;8.25;;;1.70;;
68614;SDS011;55593;51.994;5.882;2023-07-30T13:37:14;4.28;;;1.50;;
68614;SDS011;55593;51.994;5.882;2023-07-30T13:39:44;12.77;;;2.45;;
68614;SDS011;55593;51.994;5.882;2023-07-30T13:42:14;10.38;;;1.90;;
68614;SDS011;55593;51.994;5.882;2023-07-30T13:44:43;6.13;;;1.60;;
68614;SDS011;55593;51.994;5.882;2023-07-30T13:47:12;5.70;;;1.70;;
68614;SDS011;55593;51.994;5.882;2023-07-30T13:49:41;6.40;;;1.83;;
68614;SDS011;55593;51.994;5.882;2023-07-30T13:52:10;5.90;;;1.25;;
68614;SDS011;55593;51.994;5.882;2023-07-30T13:54:42;7.35;;;1.40;;
68614;SDS011;55593;51.994;5.882;2023-07-30T13:57:11;10.75;;;1.95;;
68614;SDS011;55593;51.994;5.882;2023-07-30T13:59:43;6.18;;;1.70;;
68614;SDS011;55593;51.994;5.882;2023-07-30T14:02:12;7.82;;;1.73;;
68614;SDS011;55593;51.994;5.882;2023-07-30T14:04:41;4.53;;;1.30;;
68614;SDS011;55593;51.994;5.882;2023-07-30T14:07:10;9.00;;;1.70;;
68614;SDS011;55593;51.994;5.882;2023-07-30T14:09:42;8.90;;;2.05;;
68614;SDS011;55593;51.994;5.882;2023-07-30T14:12:11;10.20;;;2.08;;
68614;SDS011;55593;51.994;5.882;2023-07-30T14:14:40;5.20;;;2.13;;
68614;SDS011;55593;51.994;5.882;2023-07-30T14:17:09;7.18;;;1.80;;
68614;SDS011;55593;51.994;5.882;2023-07-30T14:19:38;7.05;;;1.88;;
68614;SDS011;55593;51.994;5.882;2023-07-30T14:22:07;7.13;;;1.52;;
68614;SDS011;55593;51.994;5.882;2023-07-30T14:24:37;7.72;;;1.60;;
68614;SDS011;55593;51.994;5.882;2023-07-30T14:27:11;8.90;;;2.35;;
68614;SDS011;55593;51.994;5.882;2023-07-30T14:29:40;10.80;;;2.35;;
68614;SDS011;55593;51.994;5.882;2023-07-30T14:32:09;7.65;;;2.10;;
68614;SDS011;55593;51.994;5.882;2023-07-30T14:34:39;9.10;;;2.05;;
68614;SDS011;55593;51.994;5.882;2023-07-30T14:37:08;13.73;;;2.95;;
68614;SDS011;55593;51.994;5.882;2023-07-30T14:39:37;9.23;;;2.30;;
68614;SDS011;55593;51.994;5.882;2023-07-30T14:42:06;8.55;;;1.63;;
68614;SDS011;55593;51.994;5.882;2023-07-30T14:44:38;10.20;;;2.33;;
68614;SDS011;55593;51.994;5.882;2023-07-30T14:47:07;6.40;;;1.45;;
68614;SDS011;55593;51.994;5.882;2023-07-30T14:49:36;7.47;;;1.63;;
68614;SDS011;55593;51.994;5.882;2023-07-30T14:52:06;12.18;;;1.85;;